createdAt,value
2022-10-12T02:19:29.543Z,11.50
2022-10-12T02:41:54.262Z,11.70
2022-10-12T02:49:24.328Z,12.90
2022-10-12T03:15:09.459Z,14.20
2022-10-12T03:17:39.756Z,15.60
2022-10-12T03:20:12.768Z,16.30
2022-10-12T03:22:43.762Z,16.00
2022-10-12T03:25:13.482Z,14.80
2022-10-12T03:27:42.922Z,14.90
2022-10-12T03:30:20.982Z,15.30
2022-10-12T03:32:53.748Z,13.60
2022-10-12T03:35:24.580Z,13.80
2022-10-12T03:37:55.887Z,13.70
2022-10-12T03:40:24.826Z,14.30
2022-10-12T03:42:55.287Z,14.50
2022-10-12T03:45:26.017Z,14.70
2022-10-12T03:48:05.100Z,15.90
2022-10-12T03:50:35.608Z,16.00
2022-10-12T03:53:07.190Z,16.30
2022-10-12T03:55:36.449Z,16.70
2022-10-12T03:58:08.232Z,15.70
2022-10-12T04:00:58.797Z,15.50
2022-10-12T04:03:56.941Z,15.80
2022-10-12T04:06:58.335Z,15.60
2022-10-12T04:10:04.707Z,17.50
2022-10-12T04:13:10.425Z,15.80
2022-10-12T04:16:18.164Z,15.70
2022-10-12T04:19:21.024Z,18.30
2022-10-12T04:22:25.091Z,19.90
2022-10-12T04:45:39.625Z,17.80
2022-10-12T04:49:00.770Z,19.50
2022-10-12T04:56:06.756Z,21.50
2022-10-12T04:59:55.706Z,20.20
2022-10-12T05:07:31.140Z,20.20
2022-10-12T05:09:59.033Z,21.30
2022-10-12T05:12:27.115Z,22.70
2022-10-12T05:14:54.931Z,22.90
2022-10-12T05:17:22.779Z,21.70
2022-10-12T05:19:50.672Z,21.40
2022-10-12T05:22:18.560Z,22.80
2022-10-12T05:24:50.049Z,25.00
2022-10-12T05:27:21.178Z,24.70
2022-10-12T05:29:49.048Z,25.60
2022-10-12T05:32:17.327Z,25.00
2022-10-12T05:34:45.337Z,24.90
2022-10-12T05:37:13.325Z,22.00
2022-10-12T05:39:41.144Z,22.40
2022-10-12T05:42:09.283Z,22.20
2022-10-12T05:44:38.239Z,23.60
2022-10-12T05:47:06.856Z,28.90
2022-10-12T05:49:34.842Z,21.20
2022-10-12T05:52:03.111Z,21.10
2022-10-12T05:54:30.938Z,22.80
2022-10-12T05:56:58.968Z,22.70
2022-10-12T05:59:26.872Z,22.30
2022-10-12T06:01:54.649Z,21.00
2022-10-12T06:04:22.525Z,18.80
2022-10-12T06:06:50.383Z,19.40
2022-10-12T06:09:18.484Z,19.60
2022-10-12T06:11:46.328Z,13.30
2022-10-12T06:14:14.993Z,16.20
2022-10-12T06:16:42.835Z,16.00
2022-10-12T06:19:12.056Z,16.90
2022-10-12T06:21:39.967Z,17.00
2022-10-12T06:24:07.972Z,19.10
2022-10-12T06:26:35.893Z,18.80
2022-10-12T06:29:03.972Z,18.70
2022-10-12T06:31:32.635Z,20.50
2022-10-12T06:34:00.564Z,23.90
2022-10-12T06:36:28.438Z,24.00
2022-10-12T06:38:56.366Z,24.50
2022-10-12T06:41:24.204Z,26.90
2022-10-12T06:43:51.978Z,25.80
2022-10-12T06:46:19.984Z,28.00
2022-10-12T06:48:47.988Z,26.60
2022-10-12T06:51:15.987Z,27.80
2022-10-12T06:53:44.403Z,28.70
2022-10-12T06:56:12.403Z,30.00
2022-10-12T06:58:41.007Z,30.30
2022-10-12T07:01:10.874Z,31.20
2022-10-12T07:03:39.464Z,30.60
2022-10-12T07:06:13.450Z,31.70
2022-10-12T07:08:42.562Z,33.20
2022-10-12T07:11:12.914Z,33.90
2022-10-12T07:13:40.997Z,31.50
2022-10-12T07:16:08.930Z,35.20
2022-10-12T07:18:37.051Z,33.00
2022-10-12T07:21:04.999Z,33.50
2022-10-12T07:23:34.239Z,33.40
2022-10-12T07:26:02.061Z,35.00
2022-10-12T07:28:30.734Z,37.20
2022-10-12T07:31:04.411Z,35.50
2022-10-12T07:33:36.832Z,34.50
2022-10-12T07:36:14.675Z,33.60
2022-10-12T07:38:48.618Z,37.00
2022-10-12T07:41:17.782Z,35.20
2022-10-12T07:43:45.727Z,35.20
2022-10-12T07:46:13.810Z,35.50
2022-10-12T07:48:45.888Z,34.50
2022-10-12T07:51:15.546Z,36.50
2022-10-12T07:53:43.438Z,34.00
2022-10-12T07:56:15.354Z,32.60
2022-10-12T07:58:49.039Z,31.80
2022-10-12T08:01:18.584Z,30.60
2022-10-12T08:03:47.174Z,32.40
2022-10-12T08:06:18.341Z,29.00
2022-10-12T08:08:47.451Z,29.60
2022-10-12T08:11:16.137Z,28.50
2022-10-12T08:13:45.009Z,30.20
2022-10-12T08:16:16.765Z,28.00
2022-10-12T08:18:44.915Z,29.70
2022-10-12T08:21:14.661Z,29.40
2022-10-12T08:23:44.730Z,27.80
2022-10-12T08:26:13.297Z,29.20
2022-10-12T08:28:41.751Z,30.00
2022-10-12T08:31:16.470Z,29.50
2022-10-12T08:33:44.665Z,27.70
2022-10-12T08:36:13.761Z,28.50
2022-10-12T08:38:43.840Z,28.40
2022-10-12T08:41:33.420Z,28.60
2022-10-12T08:44:39.081Z,27.70
2022-10-12T08:47:17.744Z,28.30
2022-10-12T08:49:50.073Z,28.80
2022-10-12T08:52:36.507Z,29.20
2022-10-12T08:55:24.792Z,28.90
2022-10-12T08:57:52.718Z,28.20
2022-10-12T09:00:20.755Z,28.50
2022-10-12T09:03:03.570Z,30.20
2022-10-12T09:05:41.127Z,30.00
2022-10-12T09:08:41.205Z,29.10
2022-10-12T09:11:36.428Z,29.60
2022-10-12T09:14:27.595Z,30.90
2022-10-12T09:16:57.535Z,29.70
2022-10-12T09:19:35.812Z,30.90
2022-10-12T09:22:06.078Z,28.70
2022-10-12T09:24:39.354Z,28.70
2022-10-12T09:27:16.406Z,29.40
2022-10-12T09:30:02.064Z,28.70
2022-10-12T09:32:53.822Z,30.10
2022-10-12T09:35:21.773Z,29.40
2022-10-12T09:37:53.129Z,31.00
2022-10-12T09:40:28.762Z,29.90
2022-10-12T09:42:59.942Z,29.60
2022-10-12T09:45:30.236Z,30.70
2022-10-12T09:48:24.097Z,29.80
2022-10-12T09:50:59.454Z,30.50
2022-10-12T09:53:30.747Z,30.70
2022-10-12T09:56:05.013Z,31.40
2022-10-12T09:58:41.815Z,31.00
2022-10-12T10:01:19.601Z,32.70
2022-10-12T10:03:52.096Z,30.90
2022-10-12T10:06:25.288Z,31.40
2022-10-12T10:08:53.278Z,30.40
2022-10-12T10:11:25.844Z,31.10
2022-10-12T10:13:55.001Z,32.30
2022-10-12T10:16:26.183Z,32.30
2022-10-12T10:18:54.135Z,32.50
2022-10-12T10:21:33.724Z,31.80
2022-10-12T10:24:08.300Z,32.10
2022-10-12T10:26:57.572Z,31.20
2022-10-12T10:29:40.841Z,31.10
2022-10-12T10:32:24.567Z,31.10
2022-10-12T10:35:14.242Z,33.00
2022-10-12T10:37:48.151Z,31.30
2022-10-12T10:40:25.496Z,32.50
2022-10-12T10:42:57.037Z,33.70
2022-10-12T10:45:33.035Z,31.80
2022-10-12T10:48:11.541Z,30.70
2022-10-12T10:50:43.700Z,32.40
2022-10-12T10:53:21.241Z,36.80
2022-10-12T10:56:04.036Z,32.00
2022-10-12T10:58:46.561Z,32.20
2022-10-12T11:01:38.164Z,31.10
2022-10-12T11:04:16.598Z,30.70
2022-10-12T11:06:54.903Z,28.30
2022-10-12T11:09:38.277Z,31.00
2022-10-12T11:12:13.628Z,29.50
2022-10-12T11:14:48.155Z,22.80
2022-10-12T11:17:28.516Z,28.00
2022-10-12T11:20:25.890Z,29.10
2022-10-12T11:23:09.683Z,25.30
2022-10-12T11:25:50.231Z,26.60
2022-10-12T11:28:20.542Z,28.20
2022-10-12T11:30:52.025Z,27.30
2022-10-12T11:33:28.089Z,27.10
2022-10-12T11:35:58.859Z,29.40
2022-10-12T11:38:45.831Z,28.10
2022-10-12T11:44:04.748Z,29.00
2022-10-12T11:46:38.661Z,26.40
2022-10-12T11:49:16.343Z,29.00
2022-10-12T11:51:48.323Z,27.80
2022-10-12T11:54:44.482Z,27.10
2022-10-12T11:57:18.651Z,27.70
2022-10-12T11:59:59.298Z,28.90
2022-10-12T12:02:27.110Z,28.10
2022-10-12T12:04:56.197Z,27.10
2022-10-12T12:07:43.262Z,26.60
2022-10-12T12:10:26.639Z,27.30
2022-10-12T12:13:11.484Z,26.80
2022-10-12T12:15:52.547Z,24.90
2022-10-12T12:18:33.480Z,25.90
2022-10-12T12:21:09.278Z,23.00
2022-10-12T12:23:54.092Z,24.00
2022-10-12T12:26:31.134Z,26.00
2022-10-12T12:29:12.131Z,26.00
2022-10-12T12:31:40.052Z,20.80
2022-10-12T12:34:14.921Z,24.90
2022-10-12T12:36:46.659Z,26.50
2022-10-12T12:39:30.659Z,24.70
2022-10-12T12:42:02.332Z,27.40
2022-10-12T12:44:33.829Z,24.70
2022-10-12T12:47:01.758Z,24.70
2022-10-12T12:49:41.223Z,23.50
2022-10-12T12:52:18.315Z,29.60
2022-10-12T12:55:14.060Z,24.60
2022-10-12T12:58:00.593Z,23.70
2022-10-12T13:03:44.876Z,25.20
2022-10-12T13:06:15.731Z,24.60
2022-10-12T13:09:03.880Z,24.00
2022-10-12T13:11:44.004Z,22.40
2022-10-12T13:14:39.530Z,23.60
2022-10-12T13:17:33.512Z,23.90
2022-10-12T13:20:15.824Z,23.40
2022-10-12T13:22:45.804Z,21.50
2022-10-12T13:25:45.451Z,22.20
2022-10-12T13:28:20.966Z,24.50
2022-10-12T13:31:07.753Z,24.60
2022-10-12T13:33:51.794Z,24.10
2022-10-12T13:36:35.281Z,24.20
2022-10-12T13:39:23.484Z,23.60
2022-10-12T13:41:56.060Z,23.40
2022-10-12T13:44:28.436Z,24.40
2022-10-12T13:47:05.415Z,24.30
2022-10-12T13:49:43.169Z,24.10
2022-10-12T13:52:14.013Z,23.80
2022-10-12T13:54:46.242Z,24.40
2022-10-12T13:57:35.683Z,24.20
2022-10-12T14:00:22.528Z,25.40
2022-10-12T14:03:06.587Z,25.10
2022-10-12T14:05:44.918Z,25.20
2022-10-12T14:08:49.565Z,28.70
2022-10-12T14:12:08.687Z,25.20
2022-10-12T14:14:52.889Z,23.90
2022-10-12T14:21:48.734Z,25.00
2022-10-12T14:28:57.005Z,24.40
2022-10-12T14:31:53.897Z,25.00
2022-10-12T14:34:37.674Z,24.70
2022-10-12T14:37:09.796Z,24.70
2022-10-12T14:39:41.298Z,23.70
2022-10-12T14:42:29.740Z,24.30
2022-10-12T14:44:59.025Z,26.10
2022-10-12T14:48:06.863Z,23.60
2022-10-12T15:00:19.529Z,18.70
2022-10-12T15:03:04.376Z,18.60
2022-10-12T15:05:46.265Z,16.30
2022-10-12T15:08:20.964Z,16.10
2022-10-12T15:10:53.416Z,16.40
2022-10-12T15:13:22.082Z,17.00
2022-10-12T15:15:55.509Z,16.30
2022-10-12T15:18:24.448Z,14.30
2022-10-12T15:20:57.938Z,13.90
2022-10-12T15:23:26.249Z,14.50
2022-10-12T15:26:01.964Z,14.10
2022-10-12T15:28:36.998Z,13.30
2022-10-12T15:31:21.755Z,13.80
2022-10-12T15:34:23.964Z,13.10
2022-10-12T15:36:53.684Z,14.10
2022-10-12T15:39:21.948Z,15.70
2022-10-12T15:41:50.141Z,15.10
2022-10-12T15:44:18.399Z,16.50
2022-10-12T15:46:50.914Z,15.90
2022-10-12T15:49:21.847Z,16.60
2022-10-12T15:51:54.205Z,15.80
2022-10-12T15:54:22.815Z,17.70
2022-10-12T15:56:51.457Z,17.20
2022-10-12T15:59:19.525Z,18.20
2022-10-12T16:10:15.150Z,17.50
2022-10-12T16:12:46.634Z,17.10
2022-10-12T16:15:17.612Z,17.40
2022-10-12T16:18:04.550Z,17.40
2022-10-12T16:20:54.501Z,16.20
2022-10-12T16:24:31.118Z,17.00
2022-10-12T16:27:04.501Z,16.30
2022-10-12T16:29:34.028Z,15.40
2022-10-12T16:32:02.320Z,14.00
2022-10-12T16:34:31.338Z,15.20
2022-10-12T16:37:00.386Z,16.60
2022-10-12T16:39:29.356Z,17.20
2022-10-12T16:41:57.490Z,15.10
2022-10-12T16:44:40.257Z,15.20
2022-10-12T16:47:12.690Z,17.10
2022-10-12T16:49:40.702Z,13.80
2022-10-12T16:52:09.148Z,13.30
2022-10-12T16:54:37.672Z,12.80
2022-10-12T16:57:06.249Z,12.80
2022-10-12T16:59:36.493Z,12.20
2022-10-12T17:02:05.270Z,12.60
2022-10-12T17:04:36.020Z,11.60
2022-10-12T17:07:04.835Z,11.40
2022-10-12T17:09:33.475Z,9.70
2022-10-12T17:12:01.686Z,10.90
2022-10-12T17:14:30.293Z,10.20
2022-10-12T17:17:00.062Z,12.00
2022-10-12T17:19:32.385Z,12.70
2022-10-12T17:22:04.464Z,13.50
2022-10-12T17:24:35.115Z,11.90
2022-10-12T17:27:04.989Z,12.30
2022-10-12T17:29:38.179Z,11.60
2022-10-12T17:32:59.796Z,15.10
2022-10-12T17:35:39.698Z,11.50
2022-10-12T17:38:07.713Z,11.40
2022-10-12T17:40:39.063Z,9.70
2022-10-12T17:43:07.517Z,10.00
2022-10-12T17:45:35.379Z,10.90
2022-10-12T17:48:03.525Z,11.00
2022-10-12T17:50:32.897Z,12.10
2022-10-12T17:53:00.774Z,13.60
2022-10-12T17:55:47.674Z,11.70
2022-10-12T17:58:15.885Z,11.80
2022-10-12T18:00:43.953Z,12.20
2022-10-12T18:03:12.514Z,11.20
2022-10-12T18:05:40.567Z,11.40
2022-10-12T18:08:08.457Z,11.70
2022-10-12T18:10:40.906Z,12.30
2022-10-12T18:13:09.240Z,13.70
2022-10-12T18:15:42.519Z,13.60
2022-10-12T18:18:15.060Z,12.30
2022-10-12T18:20:43.510Z,11.50
2022-10-12T18:23:11.825Z,11.90
2022-10-12T18:25:41.918Z,11.50
2022-10-12T18:28:11.798Z,11.40
2022-10-12T18:30:47.582Z,11.00
2022-10-12T18:33:16.562Z,11.10
2022-10-12T18:35:44.963Z,10.20
2022-10-12T18:38:12.962Z,9.50
2022-10-12T18:40:42.341Z,10.20
2022-10-12T18:43:10.858Z,10.40
2022-10-12T18:45:43.749Z,10.10
2022-10-12T18:48:12.629Z,11.20
2022-10-12T18:50:40.506Z,10.80
2022-10-12T18:53:08.640Z,9.80
2022-10-12T18:55:38.314Z,10.10
2022-10-12T18:58:06.323Z,9.60
2022-10-12T19:00:34.341Z,11.00
2022-10-12T19:03:02.241Z,10.90
2022-10-12T19:05:30.820Z,12.90
2022-10-12T19:07:58.778Z,10.90
2022-10-12T19:10:26.689Z,10.60
2022-10-12T19:12:54.629Z,12.50
2022-10-12T19:15:22.533Z,11.80
2022-10-12T19:17:50.400Z,14.80
2022-10-12T19:20:18.484Z,12.60
2022-10-12T19:22:46.380Z,12.40
2022-10-12T19:25:14.470Z,11.90
2022-10-12T19:27:42.358Z,12.30
2022-10-12T19:30:10.667Z,13.20
2022-10-12T19:32:38.776Z,12.80
2022-10-12T19:35:07.078Z,13.50
2022-10-12T19:37:36.302Z,13.30
2022-10-12T19:40:07.762Z,13.20
2022-10-12T19:42:42.524Z,12.60
2022-10-12T19:45:11.030Z,13.30
2022-10-12T19:47:39.070Z,13.30
2022-10-12T19:50:10.037Z,13.20
2022-10-12T19:52:38.196Z,12.80
2022-10-12T19:55:06.677Z,13.20
2022-10-12T19:57:38.599Z,14.10
2022-10-12T20:00:08.774Z,14.10
2022-10-12T20:02:41.792Z,13.50
2022-10-12T20:05:11.699Z,12.00
2022-10-12T20:07:40.090Z,11.50
2022-10-12T20:10:08.620Z,11.60
2022-10-12T20:12:36.705Z,10.80
2022-10-12T20:15:05.241Z,11.50
2022-10-12T20:17:41.362Z,11.20
2022-10-12T20:20:13.125Z,10.60
2022-10-12T20:30:38.693Z,8.60
2022-10-12T20:33:41.496Z,9.40
2022-10-12T20:36:28.702Z,8.80
2022-10-12T20:42:11.499Z,8.90
2022-10-12T21:09:37.126Z,8.50
2022-10-12T21:19:42.961Z,9.40
2022-10-12T21:35:27.621Z,10.80
2022-10-12T21:37:55.581Z,11.00
2022-10-12T21:40:23.580Z,11.40
2022-10-12T21:42:55.045Z,11.50
2022-10-12T21:45:54.188Z,11.70
2022-10-12T21:59:50.883Z,11.30
2022-10-12T22:02:19.085Z,11.80
2022-10-12T22:04:47.505Z,11.50
2022-10-12T22:07:15.405Z,11.70
2022-10-12T22:09:44.993Z,11.80
2022-10-12T22:59:08.328Z,9.10
2022-10-12T23:01:37.165Z,10.80
2022-10-12T23:04:13.644Z,10.00
2022-10-12T23:07:42.378Z,9.00
2022-10-12T23:10:26.697Z,9.60
2022-10-12T23:12:54.797Z,8.60
2022-10-12T23:15:24.045Z,9.50
2022-10-12T23:22:52.388Z,10.30
